createdAt,value
2023-11-22T00:00:33.627Z,58.66
2023-11-22T00:01:39.238Z,58.59
2023-11-22T00:02:44.987Z,58.87
2023-11-22T00:03:50.653Z,58.95
2023-11-22T00:04:56.197Z,58.85
2023-11-22T00:06:01.719Z,59.16
2023-11-22T00:07:07.477Z,58.82
2023-11-22T00:08:13.048Z,58.8
2023-11-22T00:09:18.574Z,59.02
2023-11-22T00:10:24.077Z,58.79
2023-11-22T00:11:29.913Z,58.73
2023-11-22T00:12:35.439Z,58.75
2023-11-22T00:13:41.011Z,58.8
2023-11-22T00:14:46.582Z,58.75
2023-11-22T00:15:52.031Z,58.84
2023-11-22T00:16:57.720Z,58.84
2023-11-22T00:18:03.477Z,58.76
2023-11-22T00:19:09.074Z,58.9
2023-11-22T00:20:14.736Z,58.96
2023-11-22T00:21:20.249Z,58.95
2023-11-22T00:22:25.761Z,58.91
2023-11-22T00:23:31.706Z,58.91
2023-11-22T00:24:37.192Z,58.84
2023-11-22T00:25:42.662Z,58.83
2023-11-22T00:26:48.102Z,58.81
2023-11-22T00:27:53.578Z,58.82
2023-11-22T00:28:59.185Z,59.08
2023-11-22T00:30:04.764Z,58.89
2023-11-22T00:31:10.352Z,58.9
2023-11-22T00:32:16.001Z,59.01
2023-11-22T00:33:21.615Z,58.94
2023-11-22T00:34:27.280Z,58.92
2023-11-22T00:35:33.021Z,58.97
2023-11-22T00:36:38.526Z,58.96
2023-11-22T00:37:44.066Z,58.98
2023-11-22T00:38:49.614Z,58.96
2023-11-22T00:39:56.190Z,59.05
2023-11-22T00:41:01.782Z,59.07
2023-11-22T00:42:07.293Z,59.05
2023-11-22T00:43:12.827Z,59.12
2023-11-22T00:44:18.462Z,59.13
2023-11-22T00:45:24.048Z,59.08
2023-11-22T00:46:29.729Z,59.25
2023-11-22T00:47:35.453Z,59
2023-11-22T00:48:41.028Z,59.03
2023-11-22T00:49:46.527Z,59.04
2023-11-22T00:50:52.078Z,59.07
2023-11-22T00:51:58.733Z,59.05
2023-11-22T00:53:05.309Z,59.03
2023-11-22T00:54:10.861Z,59.08
2023-11-22T00:55:16.398Z,59.08
2023-11-22T00:56:21.977Z,59.16
2023-11-22T00:57:27.452Z,59.16
2023-11-22T00:58:32.923Z,59.21
2023-11-22T00:59:38.476Z,59.16
2023-11-22T01:00:44.031Z,59.13
2023-11-22T01:01:49.681Z,59.27
2023-11-22T01:02:55.462Z,59.22
2023-11-22T01:04:01.351Z,59.27
2023-11-22T01:05:07.005Z,59.3
2023-11-22T01:06:12.467Z,59.31
2023-11-22T01:07:18.027Z,59.34
2023-11-22T01:08:23.631Z,59.31
2023-11-22T01:09:29.177Z,59.35
2023-11-22T01:10:34.676Z,59.36
2023-11-22T01:11:40.243Z,59.41
2023-11-22T01:12:46.010Z,59.41
2023-11-22T01:13:51.740Z,59.44
2023-11-22T01:14:57.283Z,59.47
2023-11-22T01:16:02.829Z,59.52
2023-11-22T01:17:08.411Z,59.57
2023-11-22T01:18:14.479Z,59.45
2023-11-22T01:19:20.127Z,59.5
2023-11-22T01:20:26.037Z,59.53
2023-11-22T01:21:31.557Z,59.49
2023-11-22T01:22:37.101Z,59.53
2023-11-22T01:23:42.614Z,59.66
2023-11-22T01:24:48.064Z,59.61
2023-11-22T01:25:53.572Z,59.68
2023-11-22T01:26:59.100Z,59.7
2023-11-22T01:28:04.688Z,59.85
2023-11-22T01:29:10.277Z,59.65
2023-11-22T01:30:15.777Z,59.7
2023-11-22T01:31:21.303Z,59.65
2023-11-22T01:32:26.946Z,59.67
2023-11-22T01:33:32.498Z,59.68
2023-11-22T01:34:38.020Z,59.68
2023-11-22T01:35:43.506Z,59.67
2023-11-22T01:36:48.991Z,59.94
2023-11-22T01:37:54.491Z,59.71
2023-11-22T01:39:00.022Z,59.74
2023-11-22T01:40:05.570Z,59.82
2023-11-22T01:41:11.211Z,59.8
2023-11-22T01:42:16.704Z,59.71
2023-11-22T01:43:22.220Z,59.69
2023-11-22T01:44:28.013Z,59.69
2023-11-22T01:45:33.877Z,59.74
2023-11-22T01:46:39.518Z,59.77
2023-11-22T01:47:45.447Z,59.95
2023-11-22T01:48:50.962Z,59.76
2023-11-22T01:49:56.653Z,60.04
2023-11-22T01:51:02.124Z,60.25
2023-11-22T01:52:07.620Z,60.19
2023-11-22T01:53:13.208Z,60.04
2023-11-22T01:54:18.696Z,59.95
2023-11-22T01:55:24.228Z,60.34
2023-11-22T01:56:30.059Z,60.38
2023-11-22T01:57:39.612Z,60.76
2023-11-22T01:58:45.148Z,60.77
2023-11-22T01:59:50.778Z,60.24
2023-11-22T02:00:57.480Z,60.38
2023-11-22T02:02:03.326Z,60.57
2023-11-22T02:03:09.366Z,60.23
2023-11-22T02:04:15.235Z,60.82
2023-11-22T02:05:20.890Z,60.28
2023-11-22T02:06:26.353Z,60.08
2023-11-22T02:07:31.838Z,60.75
2023-11-22T02:08:37.442Z,60.34
2023-11-22T02:09:42.983Z,60.35
2023-11-22T02:10:48.487Z,60.49
2023-11-22T02:11:54.163Z,60.24
2023-11-22T02:12:59.666Z,60.32
2023-11-22T02:14:05.301Z,60.21
2023-11-22T02:15:10.879Z,60.22
2023-11-22T02:16:16.454Z,60.22
2023-11-22T02:17:22.145Z,60.11
2023-11-22T02:18:27.752Z,60.28
2023-11-22T02:19:33.263Z,60.18
2023-11-22T02:20:38.736Z,60.34
2023-11-22T02:21:44.256Z,60.12
2023-11-22T02:22:49.815Z,60.18
2023-11-22T02:23:55.393Z,60.18
2023-11-22T02:25:00.916Z,60.07
2023-11-22T02:26:06.519Z,60.08
2023-11-22T02:27:12.025Z,59.99
2023-11-22T02:28:17.656Z,60.05
2023-11-22T02:29:23.270Z,59.98
2023-11-22T02:30:28.736Z,59.92
2023-11-22T02:31:34.206Z,60.01
2023-11-22T02:32:39.857Z,59.93
2023-11-22T02:33:45.426Z,59.95
2023-11-22T02:34:51.210Z,60
2023-11-22T02:35:56.711Z,59.92
2023-11-22T02:37:06.651Z,59.96
2023-11-22T02:38:12.236Z,60.05
2023-11-22T02:39:17.734Z,60.09
2023-11-22T02:40:23.246Z,59.96
2023-11-22T02:41:28.900Z,60.18
2023-11-22T02:42:35.483Z,60.25
2023-11-22T02:43:41.096Z,60.15
2023-11-22T02:44:46.782Z,60.03
2023-11-22T02:45:52.528Z,60.03
2023-11-22T02:46:58.056Z,60.06
2023-11-22T02:48:03.700Z,60.65
2023-11-22T02:49:09.221Z,60.19
2023-11-22T02:50:14.798Z,60.14
2023-11-22T02:51:20.327Z,60.14
2023-11-22T02:52:25.808Z,60.19
2023-11-22T02:53:32.462Z,60.31
2023-11-22T02:54:38.049Z,60.28
2023-11-22T02:55:43.534Z,60.11
2023-11-22T02:56:49.030Z,60.21
2023-11-22T02:57:54.517Z,60.27
2023-11-22T02:59:00.237Z,60.57
2023-11-22T03:00:05.784Z,60.42
2023-11-22T03:01:11.256Z,60.71
2023-11-22T03:02:16.807Z,60.65
2023-11-22T03:03:22.618Z,60.5
2023-11-22T03:04:28.245Z,60.38
2023-11-22T03:05:33.847Z,60.19
2023-11-22T03:06:39.429Z,60.2
2023-11-22T03:07:44.911Z,60.13
2023-11-22T03:08:50.394Z,60.72
2023-11-22T03:09:55.871Z,60.35
2023-11-22T03:11:01.513Z,60.25
2023-11-22T03:12:07.021Z,60.27
2023-11-22T03:13:12.594Z,60.27
2023-11-22T03:14:18.139Z,60.16
2023-11-22T03:15:23.651Z,60.82
2023-11-22T03:16:29.291Z,60.67
2023-11-22T03:17:35.151Z,60.43
2023-11-22T03:18:40.731Z,60.58
2023-11-22T03:19:46.233Z,60.87
2023-11-22T03:20:51.751Z,60.87
2023-11-22T03:21:57.222Z,61.04
2023-11-22T03:23:03.796Z,60.71
2023-11-22T03:24:09.384Z,60.87
2023-11-22T03:25:14.859Z,60.52
2023-11-22T03:26:20.431Z,60.85
2023-11-22T03:27:26.000Z,60.55
2023-11-22T03:28:31.484Z,60.64
2023-11-22T03:29:37.080Z,60.48
2023-11-22T03:30:42.610Z,60.59
2023-11-22T03:31:48.138Z,61.05
2023-11-22T03:32:53.828Z,60.94
2023-11-22T03:33:59.583Z,61.14
2023-11-22T03:35:05.688Z,60.73
2023-11-22T03:36:11.245Z,61.16
2023-11-22T03:37:16.732Z,60.54
2023-11-22T03:38:22.379Z,60.86
2023-11-22T03:39:27.861Z,60.91
2023-11-22T03:40:33.358Z,60.79
2023-11-22T03:41:39.024Z,60.83
2023-11-22T03:42:44.512Z,60.92
2023-11-22T03:43:50.043Z,60.94
2023-11-22T03:44:55.575Z,61.17
2023-11-22T03:46:01.073Z,60.62
2023-11-22T03:47:06.978Z,60.6
2023-11-22T03:48:12.746Z,60.92
2023-11-22T03:49:18.261Z,61.11
2023-11-22T03:50:24.148Z,60.88
2023-11-22T03:51:29.653Z,60.79
2023-11-22T03:52:35.175Z,61.03
2023-11-22T03:53:40.773Z,61.05
2023-11-22T03:54:46.285Z,60.71
2023-11-22T03:55:51.776Z,60.92
2023-11-22T03:56:57.287Z,60.76
2023-11-22T03:58:02.749Z,60.64
2023-11-22T03:59:08.379Z,60.93
2023-11-22T04:00:16.464Z,60.69
2023-11-22T04:01:22.252Z,60.73
2023-11-22T04:02:27.909Z,60.51
2023-11-22T04:03:33.622Z,60.64
2023-11-22T04:04:39.186Z,61.02
2023-11-22T04:05:44.859Z,60.56
2023-11-22T04:06:50.330Z,60.69
2023-11-22T04:07:55.806Z,60.39
2023-11-22T04:09:01.289Z,60.51
2023-11-22T04:10:06.809Z,60.52
2023-11-22T04:11:12.507Z,60.43
2023-11-22T04:12:18.088Z,60.73
2023-11-22T04:13:24.325Z,61.09
2023-11-22T04:14:31.386Z,60.82
2023-11-22T04:15:37.745Z,61.06
2023-11-22T04:16:44.267Z,60.84
2023-11-22T04:17:50.885Z,60.96
2023-11-22T04:18:57.438Z,60.74
2023-11-22T04:20:03.679Z,60.81
2023-11-22T04:21:09.369Z,60.99
2023-11-22T04:22:14.849Z,60.86
2023-11-22T04:23:20.722Z,61.04
2023-11-22T04:24:26.229Z,60.87
2023-11-22T04:25:31.704Z,60.59
2023-11-22T04:26:37.318Z,61.02
2023-11-22T04:27:42.842Z,60.73
2023-11-22T04:28:48.290Z,60.79
2023-11-22T04:29:53.760Z,60.82
2023-11-22T04:30:59.281Z,60.6
2023-11-22T04:32:04.846Z,60.73
2023-11-22T04:33:11.887Z,60.87
2023-11-22T04:34:17.436Z,60.46
2023-11-22T04:35:23.121Z,60.58
2023-11-22T04:36:28.598Z,60.73
2023-11-22T04:37:34.109Z,60.85
2023-11-22T04:38:39.728Z,61.08
2023-11-22T04:39:45.264Z,60.8
2023-11-22T04:40:50.750Z,61.1
2023-11-22T04:41:56.193Z,60.99
2023-11-22T04:43:01.737Z,61.12
2023-11-22T04:44:07.436Z,60.95
2023-11-22T04:45:13.007Z,61.19
2023-11-22T04:46:18.501Z,61.12
2023-11-22T04:47:24.229Z,61.16
2023-11-22T04:48:30.015Z,60.69
2023-11-22T04:49:35.581Z,61.08
2023-11-22T04:50:41.262Z,60.98
2023-11-22T04:51:47.000Z,61.18
2023-11-22T04:52:52.466Z,61.43
2023-11-22T04:53:57.956Z,60.87
2023-11-22T04:55:03.533Z,60.8
2023-11-22T04:56:09.354Z,60.53
2023-11-22T04:57:14.836Z,59.9
2023-11-22T04:58:20.389Z,59.87
2023-11-22T04:59:25.984Z,59.81
2023-11-22T05:00:31.545Z,59.77
2023-11-22T05:01:37.235Z,59.65
2023-11-22T05:02:43.163Z,59.15
2023-11-22T05:03:49.061Z,58.98
2023-11-22T05:04:54.631Z,58.74
2023-11-22T05:06:00.135Z,58.88
2023-11-22T05:07:05.753Z,58.57
2023-11-22T05:08:11.424Z,58.41
2023-11-22T05:09:17.019Z,58.16
2023-11-22T05:10:22.540Z,58.06
2023-11-22T05:11:28.148Z,57.95
2023-11-22T05:12:33.629Z,57.74
2023-11-22T05:13:39.121Z,57.67
2023-11-22T05:14:44.712Z,57.78
2023-11-22T05:15:50.289Z,58.06
2023-11-22T05:16:55.810Z,57.87
2023-11-22T05:18:02.478Z,57.54
2023-11-22T05:19:07.955Z,57.42
2023-11-22T05:20:14.000Z,57.32
2023-11-22T05:21:19.553Z,57.08
2023-11-22T05:22:25.101Z,56.92
2023-11-22T05:23:30.690Z,56.75
2023-11-22T05:24:36.190Z,56.69
2023-11-22T05:25:41.698Z,56.5
2023-11-22T05:26:47.196Z,56.46
2023-11-22T05:27:52.696Z,56.46
2023-11-22T05:28:58.210Z,56.26
2023-11-22T05:30:04.039Z,56.39
2023-11-22T05:31:09.811Z,56.32
2023-11-22T05:32:15.429Z,55.91
2023-11-22T05:33:21.042Z,56.16
2023-11-22T05:34:26.572Z,56.11
2023-11-22T05:35:32.203Z,56
2023-11-22T05:36:37.734Z,55.91
2023-11-22T05:37:43.314Z,55.82
2023-11-22T05:38:48.832Z,55.92
2023-11-22T05:39:54.366Z,55.8
2023-11-22T05:40:59.860Z,55.87
2023-11-22T05:42:05.367Z,55.8
2023-11-22T05:43:14.609Z,55.95
2023-11-22T05:44:20.216Z,55.83
2023-11-22T05:45:25.756Z,55.83
2023-11-22T05:46:31.279Z,55.77
2023-11-22T05:47:37.010Z,55.8
2023-11-22T05:48:42.557Z,55.79
2023-11-22T05:49:48.133Z,55.86
2023-11-22T05:50:54.048Z,55.81
2023-11-22T05:51:59.585Z,55.85
2023-11-22T05:53:05.192Z,55.9
2023-11-22T05:54:10.777Z,55.99
2023-11-22T05:55:16.258Z,55.94
2023-11-22T05:56:21.819Z,56.13
2023-11-22T05:57:27.321Z,56.04
2023-11-22T05:58:32.806Z,56.06
2023-11-22T05:59:38.544Z,56.01
2023-11-22T06:00:44.044Z,56.01
2023-11-22T06:01:49.623Z,56.05
2023-11-22T06:02:55.300Z,56.17
2023-11-22T06:04:01.110Z,56.09
2023-11-22T06:05:07.106Z,56.21
2023-11-22T06:06:12.639Z,56.46
2023-11-22T06:07:18.180Z,56.37
2023-11-22T06:08:23.739Z,56.47
2023-11-22T06:09:29.268Z,56.48
2023-11-22T06:10:34.780Z,56.17
2023-11-22T06:11:40.360Z,56.41
2023-11-22T06:12:45.873Z,56.47
2023-11-22T06:13:51.403Z,56.6
2023-11-22T06:14:56.927Z,56.51
2023-11-22T06:16:03.563Z,56.59
2023-11-22T06:17:09.186Z,56.7
2023-11-22T06:18:14.761Z,56.48
2023-11-22T06:19:20.257Z,56.32
2023-11-22T06:20:25.949Z,56.49
2023-11-22T06:21:31.830Z,55.7
2023-11-22T06:22:37.329Z,55.71
2023-11-22T06:23:43.046Z,55.74
2023-11-22T06:24:49.453Z,56.05
2023-11-22T06:25:55.459Z,55.97
2023-11-22T06:27:01.000Z,56.22
2023-11-22T06:28:06.555Z,56.01
2023-11-22T06:29:12.205Z,56.1
2023-11-22T06:30:17.727Z,56.05
2023-11-22T06:31:23.262Z,56.02
2023-11-22T06:32:28.832Z,56.12
2023-11-22T06:33:34.533Z,56.16
2023-11-22T06:34:43.213Z,56.2
2023-11-22T06:35:48.841Z,56.07
2023-11-22T06:36:54.323Z,55.88
2023-11-22T06:38:00.831Z,56.2
2023-11-22T06:39:06.335Z,56.24
2023-11-22T06:40:11.845Z,56.41
2023-11-22T06:41:17.519Z,56.35
2023-11-22T06:42:23.041Z,56.07
2023-11-22T06:43:28.612Z,56.02
2023-11-22T06:44:34.517Z,55.99
2023-11-22T06:45:40.023Z,55.76
2023-11-22T06:46:45.539Z,55.71
2023-11-22T06:47:51.547Z,55.74
2023-11-22T06:48:57.398Z,55.62
2023-11-22T06:50:03.057Z,55.55
2023-11-22T06:51:08.542Z,55.48
2023-11-22T06:52:14.065Z,55.4
2023-11-22T06:53:19.633Z,55.41
2023-11-22T06:54:25.118Z,55.34
2023-11-22T06:55:30.600Z,55.26
2023-11-22T06:56:36.192Z,55.33
2023-11-22T06:57:41.886Z,55.35
2023-11-22T06:58:47.378Z,55.42
2023-11-22T06:59:52.833Z,55.27
2023-11-22T07:00:58.362Z,55.3
2023-11-22T07:02:04.111Z,55.24
2023-11-22T07:03:10.113Z,55.26
2023-11-22T07:04:16.197Z,55.31
2023-11-22T07:05:22.096Z,55.5
2023-11-22T07:06:27.670Z,55.76
2023-11-22T07:07:33.175Z,55.67
2023-11-22T07:08:38.946Z,55.54
2023-11-22T07:09:44.428Z,55.62
2023-11-22T07:10:49.917Z,55.86
2023-11-22T07:11:55.434Z,55.78
2023-11-22T07:13:00.940Z,55.94
2023-11-22T07:14:06.571Z,55.91
2023-11-22T07:15:12.193Z,55.91
2023-11-22T07:16:17.847Z,55.83
2023-11-22T07:17:23.476Z,55.77
2023-11-22T07:18:29.185Z,55.46
2023-11-22T07:19:34.712Z,55.73
2023-11-22T07:20:40.512Z,55.41
2023-11-22T07:21:46.102Z,55.51
2023-11-22T07:22:51.579Z,55.41
2023-11-22T07:23:57.183Z,55.49
2023-11-22T07:25:02.825Z,55.45
2023-11-22T07:26:08.598Z,55.46
2023-11-22T07:27:14.174Z,55.59
2023-11-22T07:28:19.764Z,55.58
2023-11-22T07:29:25.534Z,55.52
2023-11-22T07:30:31.208Z,55.59
2023-11-22T07:31:36.826Z,55.66
2023-11-22T07:32:42.467Z,55.56
2023-11-22T07:33:48.000Z,55.61
2023-11-22T07:34:53.545Z,55.7
2023-11-22T07:35:59.021Z,55.57
2023-11-22T07:37:04.566Z,55.6
2023-11-22T07:38:10.176Z,55.64
2023-11-22T07:39:17.925Z,55.66
2023-11-22T07:40:23.504Z,55.68
2023-11-22T07:41:29.240Z,55.5
2023-11-22T07:42:34.807Z,55.6
2023-11-22T07:43:40.298Z,55.89
2023-11-22T07:44:45.879Z,55.88
2023-11-22T07:45:51.435Z,55.76
2023-11-22T07:46:57.036Z,55.88
2023-11-22T07:48:02.859Z,55.51
2023-11-22T07:49:08.403Z,55.53
2023-11-22T07:50:14.453Z,55.38
2023-11-22T07:51:20.034Z,55.34
2023-11-22T07:52:25.547Z,55.21
2023-11-22T07:53:31.293Z,55.17
2023-11-22T07:54:37.110Z,55.07
2023-11-22T07:55:42.638Z,55.01
2023-11-22T07:56:48.330Z,55
2023-11-22T07:57:53.821Z,54.88
2023-11-22T07:58:59.304Z,54.92
2023-11-22T08:00:04.901Z,55.03
2023-11-22T08:01:10.662Z,54.98
2023-11-22T08:02:16.437Z,55.02
2023-11-22T08:03:22.533Z,55.11
2023-11-22T08:04:28.278Z,55.1
2023-11-22T08:05:33.941Z,55.21
2023-11-22T08:06:39.530Z,55.25
2023-11-22T08:07:46.545Z,55.25
2023-11-22T08:08:52.687Z,55.34
2023-11-22T08:09:58.194Z,55.49
2023-11-22T08:11:03.673Z,55.49
2023-11-22T08:12:09.620Z,55.63
2023-11-22T08:13:15.163Z,55.59
2023-11-22T08:14:22.247Z,55.61
2023-11-22T08:15:28.044Z,55.62
2023-11-22T08:16:33.868Z,55.66
2023-11-22T08:17:39.667Z,55.65
2023-11-22T08:18:45.529Z,55.69
2023-11-22T08:19:51.209Z,55.8
2023-11-22T08:20:57.289Z,55.93
2023-11-22T08:22:03.084Z,55.87
2023-11-22T08:23:08.648Z,55.75
2023-11-22T08:24:14.248Z,55.79
2023-11-22T08:25:19.860Z,55.8
2023-11-22T08:26:25.456Z,55.69
2023-11-22T08:27:30.934Z,55.58
2023-11-22T08:28:36.428Z,55.53
2023-11-22T08:29:42.020Z,55.49
2023-11-22T08:30:47.615Z,55.42
2023-11-22T08:31:53.223Z,55.6
2023-11-22T08:32:59.295Z,55.62
2023-11-22T08:34:04.852Z,55.59
2023-11-22T08:35:10.451Z,55.62
2023-11-22T08:36:16.163Z,55.52
2023-11-22T08:37:21.604Z,55.66
2023-11-22T08:38:27.228Z,55.57
2023-11-22T08:39:32.747Z,55.65
2023-11-22T08:40:38.269Z,55.74
2023-11-22T08:41:43.891Z,55.8
2023-11-22T08:42:49.453Z,55.71
2023-11-22T08:43:55.035Z,55.75
2023-11-22T08:45:00.562Z,55.81
2023-11-22T08:46:16.767Z,55.89
2023-11-22T08:47:22.498Z,55.94
2023-11-22T08:48:28.206Z,55.91
2023-11-22T08:49:33.706Z,55.97
2023-11-22T08:50:39.571Z,55.92
2023-11-22T08:51:45.124Z,55.91
2023-11-22T08:52:50.615Z,55.95
2023-11-22T08:53:56.465Z,56
2023-11-22T08:55:02.097Z,56.01
2023-11-22T08:56:07.599Z,55.99
2023-11-22T08:57:13.098Z,56.04
2023-11-22T08:58:18.654Z,56.03
2023-11-22T08:59:24.257Z,56.05
2023-11-22T09:00:29.770Z,56.08
2023-11-22T09:01:35.249Z,55.98
2023-11-22T09:02:41.139Z,56.01
2023-11-22T09:03:47.014Z,56
2023-11-22T09:04:52.657Z,56
2023-11-22T09:05:58.431Z,56.07
2023-11-22T09:07:03.923Z,55.98
2023-11-22T09:08:28.556Z,55.93
2023-11-22T09:09:35.864Z,55.86
2023-11-22T09:10:41.409Z,55.98
2023-11-22T09:11:47.016Z,56.03
2023-11-22T09:12:52.546Z,55.93
2023-11-22T09:13:58.117Z,55.99
2023-11-22T09:15:03.731Z,55.69
2023-11-22T09:16:09.718Z,55.57
2023-11-22T09:17:15.377Z,55.59
2023-11-22T09:18:21.424Z,55.41
2023-11-22T09:19:26.942Z,55.31
2023-11-22T09:20:32.504Z,55.13
2023-11-22T09:21:38.012Z,54.99
2023-11-22T09:22:43.450Z,54.87
2023-11-22T09:23:49.022Z,54.84
2023-11-22T09:24:54.551Z,54.68
2023-11-22T09:26:00.132Z,54.74
2023-11-22T09:27:05.801Z,54.57
2023-11-22T09:28:12.134Z,54.55
2023-11-22T09:29:17.880Z,54.46
2023-11-22T09:30:23.350Z,54.35
2023-11-22T09:31:28.877Z,54.33
2023-11-22T09:32:34.475Z,54.38
2023-11-22T09:33:40.399Z,54.32
2023-11-22T09:34:46.379Z,54.38
2023-11-22T09:35:52.306Z,54.42
2023-11-22T09:36:57.922Z,54.41
2023-11-22T09:38:03.453Z,54.48
2023-11-22T09:39:08.962Z,54.47
2023-11-22T09:40:14.445Z,54.57
2023-11-22T09:41:19.989Z,54.52
2023-11-22T09:42:25.455Z,54.77
2023-11-22T09:43:30.955Z,54.75
2023-11-22T09:44:36.652Z,54.75
2023-11-22T09:45:42.270Z,54.76
2023-11-22T09:46:47.801Z,54.86
2023-11-22T09:47:53.533Z,54.89
2023-11-22T09:48:59.273Z,54.85
2023-11-22T09:50:04.786Z,54.95
2023-11-22T09:51:10.333Z,54.83
2023-11-22T09:52:15.843Z,54.92
2023-11-22T09:53:21.498Z,54.84
2023-11-22T09:54:27.011Z,55.08
2023-11-22T09:55:32.500Z,54.94
2023-11-22T09:56:38.256Z,54.94
2023-11-22T09:57:43.844Z,54.95
2023-11-22T09:58:49.317Z,55.18
2023-11-22T09:59:55.062Z,54.95
2023-11-22T10:01:00.553Z,55.14
2023-11-22T10:02:06.173Z,55.1
2023-11-22T10:03:16.516Z,55.23
2023-11-22T10:04:22.462Z,55.14
2023-11-22T10:05:28.259Z,55.2
2023-11-22T10:06:33.820Z,55.14
2023-11-22T10:07:39.360Z,55.21
2023-11-22T10:08:44.981Z,55.22
2023-11-22T10:09:50.516Z,55.2
2023-11-22T10:10:56.042Z,55.15
2023-11-22T10:12:01.597Z,55.07
2023-11-22T10:13:07.117Z,55.1
2023-11-22T10:14:12.958Z,55.02
2023-11-22T10:15:18.578Z,54.99
2023-11-22T10:16:24.152Z,54.99
2023-11-22T10:17:29.788Z,54.86
2023-11-22T10:18:35.698Z,54.81
2023-11-22T10:19:41.205Z,54.74
2023-11-22T10:20:46.931Z,54.72
2023-11-22T10:21:52.463Z,54.68
2023-11-22T10:22:58.027Z,54.6
2023-11-22T10:24:04.135Z,54.59
2023-11-22T10:25:09.957Z,54.59
2023-11-22T10:26:15.541Z,54.68
2023-11-22T10:27:23.615Z,54.83
2023-11-22T10:28:29.440Z,54.65
2023-11-22T10:29:35.158Z,54.71
2023-11-22T10:30:40.708Z,54.59
2023-11-22T10:31:46.467Z,54.61
2023-11-22T10:32:52.238Z,54.44
2023-11-22T10:33:58.061Z,54.4
2023-11-22T10:35:03.606Z,54.21
2023-11-22T10:36:09.128Z,54.1
2023-11-22T10:37:14.616Z,54.24
2023-11-22T10:38:20.384Z,54.03
2023-11-22T10:39:26.012Z,53.97
2023-11-22T10:40:31.521Z,53.94
2023-11-22T10:41:37.078Z,53.95
2023-11-22T10:42:42.576Z,53.86
2023-11-22T10:43:48.052Z,53.82
2023-11-22T10:44:53.650Z,53.95
2023-11-22T10:45:59.509Z,53.89
2023-11-22T10:47:05.217Z,54.2
2023-11-22T10:48:10.974Z,53.89
2023-11-22T10:49:19.817Z,54
2023-11-22T10:50:25.515Z,54.05
2023-11-22T10:51:31.049Z,54.13
2023-11-22T10:52:36.530Z,54.21
2023-11-22T10:53:42.206Z,54.18
2023-11-22T10:54:47.707Z,54.44
2023-11-22T10:55:53.287Z,54.3
2023-11-22T10:56:58.968Z,54.44
2023-11-22T10:58:04.464Z,54.42
2023-11-22T10:59:09.985Z,54.47
2023-11-22T11:00:15.510Z,54.4
2023-11-22T11:01:21.311Z,54.67
2023-11-22T11:02:27.095Z,54.58
2023-11-22T11:03:33.010Z,54.62
2023-11-22T11:04:38.883Z,54.62
2023-11-22T11:05:44.667Z,54.58
2023-11-22T11:06:50.862Z,54.58
2023-11-22T11:07:56.379Z,54.47
2023-11-22T11:09:01.880Z,54.51
2023-11-22T11:10:25.113Z,54.2
2023-11-22T11:11:31.270Z,54.48
2023-11-22T11:12:36.724Z,54.35
2023-11-22T11:13:42.180Z,54.4
2023-11-22T11:14:47.845Z,54.27
2023-11-22T11:15:53.343Z,54.23
2023-11-22T11:16:58.870Z,54.41
2023-11-22T11:18:08.343Z,54.36
2023-11-22T11:19:14.053Z,54.26
2023-11-22T11:20:19.714Z,54.2
2023-11-22T11:21:25.878Z,54.29
2023-11-22T11:22:31.377Z,54.2
2023-11-22T11:23:37.094Z,54.01
2023-11-22T11:24:42.612Z,54.26
2023-11-22T11:25:48.090Z,54.24
2023-11-22T11:26:53.816Z,53.82
2023-11-22T11:27:59.499Z,53.88
2023-11-22T11:29:05.030Z,53.76
2023-11-22T11:30:10.529Z,53.77
2023-11-22T11:31:16.082Z,53.82
2023-11-22T11:32:21.633Z,53.86
2023-11-22T11:33:27.253Z,53.96
2023-11-22T11:34:32.818Z,53.86
2023-11-22T11:35:38.476Z,53.82
2023-11-22T11:36:44.097Z,53.81
2023-11-22T11:37:49.651Z,53.88
2023-11-22T11:38:55.318Z,53.74
2023-11-22T11:40:00.966Z,54.06
2023-11-22T11:41:06.524Z,53.98
2023-11-22T11:42:19.011Z,53.78
2023-11-22T11:43:26.118Z,53.78
2023-11-22T11:44:31.713Z,53.7
2023-11-22T11:45:37.227Z,53.76
2023-11-22T11:46:43.414Z,53.83
2023-11-22T11:47:49.165Z,53.72
2023-11-22T11:48:54.767Z,53.73
2023-11-22T11:50:00.325Z,53.82
2023-11-22T11:51:05.847Z,53.74
2023-11-22T11:52:11.359Z,53.78
2023-11-22T11:53:17.338Z,53.68
2023-11-22T11:54:23.122Z,53.76
2023-11-22T11:55:28.744Z,53.71
2023-11-22T11:56:34.389Z,53.71
2023-11-22T11:57:40.239Z,53.72
2023-11-22T11:58:46.296Z,53.72
2023-11-22T11:59:51.897Z,53.79
2023-11-22T12:00:57.408Z,53.96
2023-11-22T12:02:03.168Z,53.74
2023-11-22T12:03:09.077Z,53.69
2023-11-22T12:04:14.617Z,53.76
2023-11-22T12:05:20.238Z,53.75
2023-11-22T12:06:26.268Z,53.77
2023-11-22T12:07:32.022Z,53.72
2023-11-22T12:08:37.717Z,53.86
2023-11-22T12:09:43.565Z,54.18
2023-11-22T12:10:49.119Z,54.21
2023-11-22T12:11:54.656Z,54.2
2023-11-22T12:13:00.156Z,54.21
2023-11-22T12:14:05.682Z,54.08
2023-11-22T12:15:11.198Z,54.05
2023-11-22T12:16:20.197Z,53.69
2023-11-22T12:17:25.783Z,53.69
2023-11-22T12:18:31.636Z,53.75
2023-11-22T12:19:37.350Z,53.43
2023-11-22T12:20:42.880Z,53.41
2023-11-22T12:21:48.444Z,53.12
2023-11-22T12:22:53.973Z,53.02
2023-11-22T12:23:59.661Z,52.9
2023-11-22T12:25:05.197Z,52.93
2023-11-22T12:26:10.828Z,52.71
2023-11-22T12:27:16.335Z,52.85
2023-11-22T12:28:26.575Z,52.83
2023-11-22T12:29:32.320Z,52.72
2023-11-22T12:30:37.981Z,52.88
2023-11-22T12:31:43.495Z,52.88
2023-11-22T12:32:49.237Z,52.9
2023-11-22T12:33:56.835Z,52.9
2023-11-22T12:35:02.337Z,52.83
2023-11-22T12:36:07.863Z,52.89
2023-11-22T12:37:13.307Z,52.98
2023-11-22T12:38:18.900Z,53.01
2023-11-22T12:39:24.464Z,52.98
2023-11-22T12:40:29.959Z,52.99
2023-11-22T12:41:35.638Z,53
2023-11-22T12:42:41.118Z,53.13
2023-11-22T12:43:53.589Z,53.17
2023-11-22T12:44:59.267Z,53.3
2023-11-22T12:46:04.767Z,53.21
2023-11-22T12:47:10.397Z,53.25
2023-11-22T12:48:16.152Z,53.31
2023-11-22T12:49:21.824Z,53.35
2023-11-22T12:50:27.483Z,53.28
2023-11-22T12:51:36.074Z,53.37
2023-11-22T12:52:41.600Z,53.5
2023-11-22T12:53:47.190Z,53.46
2023-11-22T12:54:52.723Z,53.36
2023-11-22T12:55:58.253Z,53.57
2023-11-22T12:57:04.312Z,53.46
2023-11-22T12:58:09.829Z,53.5
2023-11-22T12:59:15.348Z,53.74
2023-11-22T13:00:20.847Z,53.7
2023-11-22T13:01:26.393Z,53.7
2023-11-22T13:02:38.690Z,53.68
2023-11-22T13:03:48.985Z,53.62
2023-11-22T13:04:55.145Z,53.62
2023-11-22T13:06:00.990Z,53.66
2023-11-22T13:07:06.604Z,53.71
2023-11-22T13:08:12.118Z,53.89
2023-11-22T13:09:18.322Z,53.9
2023-11-22T13:10:23.861Z,53.66
2023-11-22T13:11:29.519Z,53.95
2023-11-22T13:12:34.999Z,53.78
2023-11-22T13:13:40.509Z,53.9
2023-11-22T13:14:46.127Z,53.72
2023-11-22T13:15:51.735Z,53.67
2023-11-22T13:17:00.087Z,53.85
2023-11-22T13:18:05.742Z,53.89
2023-11-22T13:19:11.262Z,53.9
2023-11-22T13:20:16.864Z,53.87
2023-11-22T13:21:22.456Z,53.89
2023-11-22T13:22:27.951Z,53.84
2023-11-22T13:23:33.650Z,53.87
2023-11-22T13:24:39.180Z,53.85
2023-11-22T13:25:47.139Z,53.89
2023-11-22T13:26:52.989Z,53.93
2023-11-22T13:27:58.479Z,53.94
2023-11-22T13:29:04.069Z,53.86
2023-11-22T13:30:09.612Z,53.98
2023-11-22T13:31:15.241Z,53.87
2023-11-22T13:32:20.821Z,54
2023-11-22T13:33:26.582Z,53.93
2023-11-22T13:34:32.117Z,54
2023-11-22T13:35:37.690Z,53.93
2023-11-22T13:36:43.233Z,53.91
2023-11-22T13:37:48.778Z,53.92
2023-11-22T13:38:54.486Z,53.95
2023-11-22T13:39:59.960Z,53.9
2023-11-22T13:41:05.675Z,53.9
2023-11-22T13:42:11.194Z,53.84
2023-11-22T13:43:16.709Z,53.77
2023-11-22T13:44:22.571Z,53.74
2023-11-22T13:45:28.547Z,53.84
2023-11-22T13:46:34.140Z,53.83
2023-11-22T13:47:39.809Z,53.77
2023-11-22T13:48:45.390Z,53.76
2023-11-22T13:49:50.910Z,53.91
2023-11-22T13:50:56.585Z,53.9
2023-11-22T13:52:02.173Z,53.91
2023-11-22T13:53:07.772Z,53.94
2023-11-22T13:54:14.311Z,53.92
2023-11-22T13:55:19.950Z,54
2023-11-22T13:56:25.620Z,53.98
2023-11-22T13:57:31.210Z,53.96
2023-11-22T13:58:36.726Z,53.96
2023-11-22T13:59:42.319Z,53.97
2023-11-22T14:00:47.876Z,53.95
2023-11-22T14:01:56.354Z,53.94
2023-11-22T14:03:02.291Z,54.04
2023-11-22T14:04:08.340Z,54.04
2023-11-22T14:05:13.889Z,54.04
2023-11-22T14:06:19.445Z,54.15
2023-11-22T14:07:24.966Z,54.14
2023-11-22T14:08:30.710Z,54.11
2023-11-22T14:09:36.429Z,54.19
2023-11-22T14:10:41.948Z,54.2
2023-11-22T14:11:47.548Z,54.2